sensor_id;sensor_type;location;lat;lon;timestamp;P1;durP1;ratioP1;P2;durP2;ratioP2
20044;SDS011;10183;47.808;9.476;2024-02-26T00:00:00;24.57;;;22.37;;
20044;SDS011;10183;47.808;9.476;2024-02-26T00:02:26;24.97;;;22.77;;
20044;SDS011;10183;47.808;9.476;2024-02-26T00:04:52;24.93;;;22.63;;
20044;SDS011;10183;47.808;9.476;2024-02-26T00:07:18;24.73;;;22.53;;
20044;SDS011;10183;47.808;9.476;2024-02-26T00:09:44;23.90;;;21.70;;
20044;SDS011;10183;47.808;9.476;2024-02-26T00:12:10;24.30;;;22.00;;
20044;SDS011;10183;47.808;9.476;2024-02-26T00:14:36;25.30;;;23.00;;
20044;SDS011;10183;47.808;9.476;2024-02-26T00:17:03;25.70;;;23.50;;
20044;SDS011;10183;47.808;9.476;2024-02-26T00:19:29;25.93;;;23.73;;
20044;SDS011;10183;47.808;9.476;2024-02-26T00:21:55;26.33;;;24.17;;
20044;SDS011;10183;47.808;9.476;2024-02-26T00:24:21;26.23;;;23.87;;
20044;SDS011;10183;47.808;9.476;2024-02-26T00:26:47;24.60;;;22.40;;
20044;SDS011;10183;47.808;9.476;2024-02-26T00:29:18;26.40;;;24.07;;
20044;SDS011;10183;47.808;9.476;2024-02-26T00:31:44;26.73;;;24.33;;
20044;SDS011;10183;47.808;9.476;2024-02-26T00:34:10;27.67;;;25.27;;
20044;SDS011;10183;47.808;9.476;2024-02-26T00:36:36;38.67;;;30.70;;
20044;SDS011;10183;47.808;9.476;2024-02-26T00:39:02;29.77;;;26.60;;
20044;SDS011;10183;47.808;9.476;2024-02-26T00:41:29;30.73;;;27.40;;
20044;SDS011;10183;47.808;9.476;2024-02-26T00:43:55;25.57;;;23.07;;
20044;SDS011;10183;47.808;9.476;2024-02-26T00:46:21;24.57;;;22.27;;
20044;SDS011;10183;47.808;9.476;2024-02-26T00:48:47;25.77;;;23.37;;
20044;SDS011;10183;47.808;9.476;2024-02-26T00:51:13;25.87;;;23.10;;
20044;SDS011;10183;47.808;9.476;2024-02-26T00:53:40;26.33;;;23.73;;
20044;SDS011;10183;47.808;9.476;2024-02-26T00:56:06;25.00;;;22.47;;
20044;SDS011;10183;47.808;9.476;2024-02-26T00:58:32;24.17;;;21.97;;
20044;SDS011;10183;47.808;9.476;2024-02-26T01:00:58;24.77;;;22.57;;
20044;SDS011;10183;47.808;9.476;2024-02-26T01:03:24;24.47;;;22.27;;
20044;SDS011;10183;47.808;9.476;2024-02-26T01:05:50;25.33;;;22.93;;
20044;SDS011;10183;47.808;9.476;2024-02-26T01:08:16;25.90;;;23.53;;
20044;SDS011;10183;47.808;9.476;2024-02-26T01:10:42;27.27;;;24.97;;
20044;SDS011;10183;47.808;9.476;2024-02-26T01:13:08;26.80;;;24.53;;
20044;SDS011;10183;47.808;9.476;2024-02-26T01:15:34;27.47;;;24.77;;
20044;SDS011;10183;47.808;9.476;2024-02-26T01:18:00;27.20;;;25.00;;
20044;SDS011;10183;47.808;9.476;2024-02-26T01:20:26;25.37;;;23.03;;
20044;SDS011;10183;47.808;9.476;2024-02-26T01:22:52;24.93;;;22.73;;
20044;SDS011;10183;47.808;9.476;2024-02-26T01:25:18;24.20;;;22.10;;
20044;SDS011;10183;47.808;9.476;2024-02-26T01:27:44;23.90;;;21.83;;
20044;SDS011;10183;47.808;9.476;2024-02-26T01:30:10;24.90;;;22.60;;
20044;SDS011;10183;47.808;9.476;2024-02-26T01:32:37;25.17;;;22.90;;
20044;SDS011;10183;47.808;9.476;2024-02-26T01:35:03;24.93;;;22.70;;
20044;SDS011;10183;47.808;9.476;2024-02-26T01:37:30;24.67;;;22.57;;
20044;SDS011;10183;47.808;9.476;2024-02-26T01:39:56;24.47;;;22.27;;
20044;SDS011;10183;47.808;9.476;2024-02-26T01:42:22;25.23;;;23.03;;
20044;SDS011;10183;47.808;9.476;2024-02-26T01:44:48;24.50;;;22.30;;
20044;SDS011;10183;47.808;9.476;2024-02-26T01:47:14;24.90;;;22.57;;
20044;SDS011;10183;47.808;9.476;2024-02-26T01:49:40;24.73;;;22.60;;
20044;SDS011;10183;47.808;9.476;2024-02-26T01:52:07;25.23;;;22.93;;
20044;SDS011;10183;47.808;9.476;2024-02-26T01:54:34;24.50;;;22.20;;
20044;SDS011;10183;47.808;9.476;2024-02-26T01:57:02;25.00;;;22.60;;
20044;SDS011;10183;47.808;9.476;2024-02-26T01:59:29;25.57;;;23.57;;
20044;SDS011;10183;47.808;9.476;2024-02-26T02:01:57;25.07;;;22.87;;
20044;SDS011;10183;47.808;9.476;2024-02-26T02:04:24;24.30;;;22.20;;
20044;SDS011;10183;47.808;9.476;2024-02-26T02:06:50;24.80;;;22.70;;
20044;SDS011;10183;47.808;9.476;2024-02-26T02:09:17;24.23;;;22.13;;
20044;SDS011;10183;47.808;9.476;2024-02-26T02:11:44;24.30;;;22.10;;
20044;SDS011;10183;47.808;9.476;2024-02-26T02:14:11;23.90;;;21.90;;
20044;SDS011;10183;47.808;9.476;2024-02-26T02:16:37;24.23;;;22.13;;
20044;SDS011;10183;47.808;9.476;2024-02-26T02:19:03;24.23;;;22.17;;
20044;SDS011;10183;47.808;9.476;2024-02-26T02:21:29;24.73;;;22.43;;
20044;SDS011;10183;47.808;9.476;2024-02-26T02:23:55;23.93;;;21.73;;
20044;SDS011;10183;47.808;9.476;2024-02-26T02:26:21;24.07;;;21.97;;
20044;SDS011;10183;47.808;9.476;2024-02-26T02:28:47;24.47;;;22.27;;
20044;SDS011;10183;47.808;9.476;2024-02-26T02:31:14;24.13;;;21.93;;
20044;SDS011;10183;47.808;9.476;2024-02-26T02:33:41;24.37;;;22.27;;
20044;SDS011;10183;47.808;9.476;2024-02-26T02:36:07;24.60;;;22.50;;
20044;SDS011;10183;47.808;9.476;2024-02-26T02:38:36;28.47;;;26.13;;
20044;SDS011;10183;47.808;9.476;2024-02-26T02:41:02;26.73;;;24.53;;
20044;SDS011;10183;47.808;9.476;2024-02-26T02:43:28;27.43;;;24.60;;
20044;SDS011;10183;47.808;9.476;2024-02-26T02:45:54;25.67;;;23.43;;
20044;SDS011;10183;47.808;9.476;2024-02-26T02:48:20;26.03;;;23.67;;
20044;SDS011;10183;47.808;9.476;2024-02-26T02:50:46;26.90;;;24.60;;
20044;SDS011;10183;47.808;9.476;2024-02-26T02:53:11;26.73;;;24.63;;
20044;SDS011;10183;47.808;9.476;2024-02-26T02:55:37;27.53;;;25.13;;
20044;SDS011;10183;47.808;9.476;2024-02-26T02:58:04;25.23;;;23.03;;
20044;SDS011;10183;47.808;9.476;2024-02-26T03:00:30;25.67;;;23.47;;
20044;SDS011;10183;47.808;9.476;2024-02-26T03:02:56;26.00;;;23.70;;
20044;SDS011;10183;47.808;9.476;2024-02-26T03:05:22;24.87;;;22.77;;
20044;SDS011;10183;47.808;9.476;2024-02-26T03:07:48;25.70;;;23.50;;
20044;SDS011;10183;47.808;9.476;2024-02-26T03:10:14;26.17;;;23.77;;
20044;SDS011;10183;47.808;9.476;2024-02-26T03:12:40;25.80;;;23.50;;
20044;SDS011;10183;47.808;9.476;2024-02-26T03:15:06;26.73;;;24.50;;
20044;SDS011;10183;47.808;9.476;2024-02-26T03:17:32;26.57;;;24.37;;
20044;SDS011;10183;47.808;9.476;2024-02-26T03:19:58;25.53;;;23.33;;
20044;SDS011;10183;47.808;9.476;2024-02-26T03:22:24;25.90;;;23.73;;
20044;SDS011;10183;47.808;9.476;2024-02-26T03:24:50;28.37;;;26.07;;
20044;SDS011;10183;47.808;9.476;2024-02-26T03:27:16;29.07;;;26.77;;
20044;SDS011;10183;47.808;9.476;2024-02-26T03:29:42;27.77;;;25.37;;
20044;SDS011;10183;47.808;9.476;2024-02-26T03:32:08;27.47;;;25.00;;
20044;SDS011;10183;47.808;9.476;2024-02-26T03:34:34;27.03;;;24.67;;
20044;SDS011;10183;47.808;9.476;2024-02-26T03:37:00;26.23;;;23.73;;
20044;SDS011;10183;47.808;9.476;2024-02-26T03:39:26;26.07;;;23.77;;
20044;SDS011;10183;47.808;9.476;2024-02-26T03:41:52;25.73;;;23.53;;
20044;SDS011;10183;47.808;9.476;2024-02-26T03:44:19;26.13;;;24.03;;
20044;SDS011;10183;47.808;9.476;2024-02-26T03:46:45;25.60;;;23.50;;
20044;SDS011;10183;47.808;9.476;2024-02-26T03:49:12;26.20;;;23.90;;
20044;SDS011;10183;47.808;9.476;2024-02-26T03:51:38;28.27;;;25.57;;
20044;SDS011;10183;47.808;9.476;2024-02-26T03:54:04;27.37;;;24.97;;
20044;SDS011;10183;47.808;9.476;2024-02-26T03:56:30;27.20;;;24.80;;
20044;SDS011;10183;47.808;9.476;2024-02-26T03:58:56;26.33;;;24.17;;
20044;SDS011;10183;47.808;9.476;2024-02-26T04:01:24;29.73;;;27.43;;
20044;SDS011;10183;47.808;9.476;2024-02-26T04:03:50;32.37;;;29.73;;
20044;SDS011;10183;47.808;9.476;2024-02-26T04:06:17;31.47;;;28.60;;
20044;SDS011;10183;47.808;9.476;2024-02-26T04:08:45;30.17;;;27.57;;
20044;SDS011;10183;47.808;9.476;2024-02-26T04:11:12;29.23;;;26.43;;
20044;SDS011;10183;47.808;9.476;2024-02-26T04:13:38;29.37;;;26.83;;
20044;SDS011;10183;47.808;9.476;2024-02-26T04:16:04;29.40;;;26.90;;
20044;SDS011;10183;47.808;9.476;2024-02-26T04:18:31;30.00;;;27.47;;
20044;SDS011;10183;47.808;9.476;2024-02-26T04:20:57;28.53;;;26.13;;
20044;SDS011;10183;47.808;9.476;2024-02-26T04:23:23;28.87;;;26.40;;
20044;SDS011;10183;47.808;9.476;2024-02-26T04:25:49;28.70;;;26.20;;
20044;SDS011;10183;47.808;9.476;2024-02-26T04:28:15;27.87;;;25.53;;
20044;SDS011;10183;47.808;9.476;2024-02-26T04:30:41;26.50;;;24.20;;
20044;SDS011;10183;47.808;9.476;2024-02-26T04:33:07;31.00;;;28.33;;
20044;SDS011;10183;47.808;9.476;2024-02-26T04:35:33;30.60;;;28.03;;
20044;SDS011;10183;47.808;9.476;2024-02-26T04:38:00;31.00;;;28.07;;
20044;SDS011;10183;47.808;9.476;2024-02-26T04:40:26;30.43;;;27.93;;
20044;SDS011;10183;47.808;9.476;2024-02-26T04:42:52;27.93;;;25.53;;
20044;SDS011;10183;47.808;9.476;2024-02-26T04:45:18;30.47;;;27.97;;
20044;SDS011;10183;47.808;9.476;2024-02-26T04:47:44;30.70;;;28.10;;
20044;SDS011;10183;47.808;9.476;2024-02-26T04:50:10;36.50;;;33.33;;
20044;SDS011;10183;47.808;9.476;2024-02-26T04:52:36;58.67;;;47.00;;
20044;SDS011;10183;47.808;9.476;2024-02-26T04:55:03;33.47;;;30.67;;
20044;SDS011;10183;47.808;9.476;2024-02-26T04:57:29;30.43;;;27.70;;
20044;SDS011;10183;47.808;9.476;2024-02-26T04:59:55;29.37;;;26.83;;
20044;SDS011;10183;47.808;9.476;2024-02-26T05:02:21;29.03;;;26.53;;
20044;SDS011;10183;47.808;9.476;2024-02-26T05:04:47;27.00;;;24.43;;
20044;SDS011;10183;47.808;9.476;2024-02-26T05:07:13;26.20;;;23.80;;
20044;SDS011;10183;47.808;9.476;2024-02-26T05:09:39;26.27;;;23.57;;
20044;SDS011;10183;47.808;9.476;2024-02-26T05:12:07;25.47;;;23.17;;
20044;SDS011;10183;47.808;9.476;2024-02-26T05:14:33;27.70;;;25.17;;
20044;SDS011;10183;47.808;9.476;2024-02-26T05:16:59;25.60;;;23.27;;
20044;SDS011;10183;47.808;9.476;2024-02-26T05:19:25;25.47;;;23.13;;
20044;SDS011;10183;47.808;9.476;2024-02-26T05:21:51;25.87;;;23.47;;
20044;SDS011;10183;47.808;9.476;2024-02-26T05:24:17;25.50;;;22.97;;
20044;SDS011;10183;47.808;9.476;2024-02-26T05:26:43;24.90;;;22.40;;
20044;SDS011;10183;47.808;9.476;2024-02-26T05:29:09;25.60;;;23.40;;
20044;SDS011;10183;47.808;9.476;2024-02-26T05:31:35;26.23;;;23.90;;
20044;SDS011;10183;47.808;9.476;2024-02-26T05:34:01;28.23;;;25.53;;
20044;SDS011;10183;47.808;9.476;2024-02-26T05:36:27;29.67;;;26.97;;
20044;SDS011;10183;47.808;9.476;2024-02-26T05:38:58;27.97;;;25.33;;
20044;SDS011;10183;47.808;9.476;2024-02-26T05:41:24;28.53;;;25.93;;
20044;SDS011;10183;47.808;9.476;2024-02-26T05:43:51;27.53;;;24.73;;
20044;SDS011;10183;47.808;9.476;2024-02-26T05:46:18;25.60;;;23.20;;
20044;SDS011;10183;47.808;9.476;2024-02-26T05:48:44;26.70;;;24.23;;
20044;SDS011;10183;47.808;9.476;2024-02-26T05:51:10;27.37;;;24.53;;
20044;SDS011;10183;47.808;9.476;2024-02-26T05:53:36;28.10;;;25.43;;
20044;SDS011;10183;47.808;9.476;2024-02-26T05:56:02;28.57;;;25.77;;
20044;SDS011;10183;47.808;9.476;2024-02-26T05:58:28;26.87;;;24.40;;
20044;SDS011;10183;47.808;9.476;2024-02-26T06:00:54;29.83;;;27.13;;
20044;SDS011;10183;47.808;9.476;2024-02-26T06:03:20;28.60;;;25.80;;
20044;SDS011;10183;47.808;9.476;2024-02-26T06:05:46;27.57;;;24.80;;
20044;SDS011;10183;47.808;9.476;2024-02-26T06:08:12;26.57;;;24.27;;
20044;SDS011;10183;47.808;9.476;2024-02-26T06:10:39;30.37;;;27.77;;
20044;SDS011;10183;47.808;9.476;2024-02-26T06:13:05;37.33;;;34.03;;
20044;SDS011;10183;47.808;9.476;2024-02-26T06:15:31;35.03;;;31.67;;
20044;SDS011;10183;47.808;9.476;2024-02-26T06:17:57;35.30;;;31.77;;
20044;SDS011;10183;47.808;9.476;2024-02-26T06:20:23;38.23;;;34.83;;
20044;SDS011;10183;47.808;9.476;2024-02-26T06:22:49;38.70;;;35.17;;
20044;SDS011;10183;47.808;9.476;2024-02-26T06:25:15;37.93;;;34.53;;
20044;SDS011;10183;47.808;9.476;2024-02-26T06:27:41;42.10;;;38.60;;
20044;SDS011;10183;47.808;9.476;2024-02-26T06:30:07;30.97;;;27.80;;
20044;SDS011;10183;47.808;9.476;2024-02-26T06:32:35;34.53;;;31.43;;
20044;SDS011;10183;47.808;9.476;2024-02-26T06:35:01;35.90;;;32.50;;
20044;SDS011;10183;47.808;9.476;2024-02-26T06:37:31;34.80;;;31.40;;
20044;SDS011;10183;47.808;9.476;2024-02-26T06:39:58;33.10;;;29.87;;
20044;SDS011;10183;47.808;9.476;2024-02-26T06:42:24;40.93;;;37.43;;
20044;SDS011;10183;47.808;9.476;2024-02-26T06:44:50;37.77;;;34.17;;
20044;SDS011;10183;47.808;9.476;2024-02-26T06:47:16;31.97;;;28.87;;
20044;SDS011;10183;47.808;9.476;2024-02-26T06:49:42;35.37;;;32.03;;
20044;SDS011;10183;47.808;9.476;2024-02-26T06:52:09;36.30;;;32.53;;
20044;SDS011;10183;47.808;9.476;2024-02-26T06:54:35;34.60;;;31.30;;
20044;SDS011;10183;47.808;9.476;2024-02-26T06:57:01;32.23;;;28.83;;
20044;SDS011;10183;47.808;9.476;2024-02-26T06:59:27;34.10;;;30.80;;
20044;SDS011;10183;47.808;9.476;2024-02-26T07:01:53;33.93;;;30.53;;
20044;SDS011;10183;47.808;9.476;2024-02-26T07:04:19;33.20;;;29.63;;
20044;SDS011;10183;47.808;9.476;2024-02-26T07:06:45;34.40;;;30.90;;
20044;SDS011;10183;47.808;9.476;2024-02-26T07:09:12;33.70;;;30.27;;
20044;SDS011;10183;47.808;9.476;2024-02-26T07:11:38;35.03;;;31.30;;
20044;SDS011;10183;47.808;9.476;2024-02-26T07:14:11;34.17;;;30.47;;
20044;SDS011;10183;47.808;9.476;2024-02-26T07:16:38;36.53;;;32.53;;
20044;SDS011;10183;47.808;9.476;2024-02-26T07:19:04;37.83;;;33.83;;
20044;SDS011;10183;47.808;9.476;2024-02-26T07:21:30;36.07;;;31.57;;
20044;SDS011;10183;47.808;9.476;2024-02-26T07:23:56;42.00;;;37.07;;
20044;SDS011;10183;47.808;9.476;2024-02-26T07:26:22;50.07;;;42.00;;
20044;SDS011;10183;47.808;9.476;2024-02-26T07:28:50;34.10;;;29.57;;
20044;SDS011;10183;47.808;9.476;2024-02-26T07:31:17;35.23;;;29.63;;
20044;SDS011;10183;47.808;9.476;2024-02-26T07:33:43;32.10;;;27.73;;
20044;SDS011;10183;47.808;9.476;2024-02-26T07:36:09;35.73;;;28.40;;
20044;SDS011;10183;47.808;9.476;2024-02-26T07:38:35;32.23;;;26.57;;
20044;SDS011;10183;47.808;9.476;2024-02-26T07:41:02;34.50;;;29.03;;
20044;SDS011;10183;47.808;9.476;2024-02-26T07:43:28;37.07;;;32.43;;
20044;SDS011;10183;47.808;9.476;2024-02-26T07:45:54;36.03;;;29.43;;
20044;SDS011;10183;47.808;9.476;2024-02-26T07:48:21;39.43;;;29.60;;
20044;SDS011;10183;47.808;9.476;2024-02-26T07:50:47;36.03;;;31.47;;
20044;SDS011;10183;47.808;9.476;2024-02-26T07:53:13;35.10;;;29.97;;
20044;SDS011;10183;47.808;9.476;2024-02-26T07:55:39;34.93;;;26.97;;
20044;SDS011;10183;47.808;9.476;2024-02-26T07:58:05;34.53;;;29.77;;
20044;SDS011;10183;47.808;9.476;2024-02-26T08:00:31;33.43;;;27.87;;
20044;SDS011;10183;47.808;9.476;2024-02-26T08:02:57;36.97;;;32.40;;
20044;SDS011;10183;47.808;9.476;2024-02-26T08:05:23;35.80;;;30.77;;
20044;SDS011;10183;47.808;9.476;2024-02-26T08:07:50;35.43;;;31.83;;
20044;SDS011;10183;47.808;9.476;2024-02-26T08:10:16;32.40;;;28.43;;
20044;SDS011;10183;47.808;9.476;2024-02-26T08:12:42;35.23;;;30.90;;
20044;SDS011;10183;47.808;9.476;2024-02-26T08:15:10;34.67;;;29.90;;
20044;SDS011;10183;47.808;9.476;2024-02-26T08:17:36;33.10;;;29.50;;
20044;SDS011;10183;47.808;9.476;2024-02-26T08:20:03;34.70;;;30.83;;
20044;SDS011;10183;47.808;9.476;2024-02-26T08:22:29;33.23;;;29.67;;
20044;SDS011;10183;47.808;9.476;2024-02-26T08:24:55;32.53;;;29.03;;
20044;SDS011;10183;47.808;9.476;2024-02-26T08:27:21;39.03;;;35.03;;
20044;SDS011;10183;47.808;9.476;2024-02-26T08:29:47;41.57;;;37.33;;
20044;SDS011;10183;47.808;9.476;2024-02-26T08:32:13;35.23;;;31.53;;
20044;SDS011;10183;47.808;9.476;2024-02-26T08:34:39;38.37;;;29.90;;
20044;SDS011;10183;47.808;9.476;2024-02-26T08:37:05;37.43;;;31.80;;
20044;SDS011;10183;47.808;9.476;2024-02-26T08:39:31;36.27;;;32.37;;
20044;SDS011;10183;47.808;9.476;2024-02-26T08:41:57;37.07;;;29.90;;
20044;SDS011;10183;47.808;9.476;2024-02-26T08:44:23;36.93;;;31.20;;
20044;SDS011;10183;47.808;9.476;2024-02-26T08:46:51;42.30;;;32.63;;
20044;SDS011;10183;47.808;9.476;2024-02-26T08:49:17;35.20;;;27.33;;
20044;SDS011;10183;47.808;9.476;2024-02-26T08:51:43;40.10;;;33.53;;
20044;SDS011;10183;47.808;9.476;2024-02-26T08:54:10;57.33;;;51.33;;
20044;SDS011;10183;47.808;9.476;2024-02-26T08:56:36;38.17;;;29.40;;
20044;SDS011;10183;47.808;9.476;2024-02-26T08:59:02;33.73;;;27.77;;
20044;SDS011;10183;47.808;9.476;2024-02-26T09:01:29;33.17;;;28.50;;
20044;SDS011;10183;47.808;9.476;2024-02-26T09:03:55;33.57;;;29.80;;
20044;SDS011;10183;47.808;9.476;2024-02-26T09:06:21;43.83;;;38.20;;
20044;SDS011;10183;47.808;9.476;2024-02-26T09:08:47;52.97;;;46.57;;
20044;SDS011;10183;47.808;9.476;2024-02-26T09:11:13;35.07;;;28.17;;
20044;SDS011;10183;47.808;9.476;2024-02-26T09:13:39;38.73;;;32.37;;
20044;SDS011;10183;47.808;9.476;2024-02-26T09:16:05;36.43;;;32.20;;
20044;SDS011;10183;47.808;9.476;2024-02-26T09:18:32;43.70;;;39.00;;
20044;SDS011;10183;47.808;9.476;2024-02-26T09:20:58;66.90;;;59.60;;
20044;SDS011;10183;47.808;9.476;2024-02-26T09:23:24;61.13;;;54.83;;
20044;SDS011;10183;47.808;9.476;2024-02-26T09:25:50;61.57;;;55.53;;
20044;SDS011;10183;47.808;9.476;2024-02-26T09:28:16;57.97;;;52.23;;
20044;SDS011;10183;47.808;9.476;2024-02-26T09:30:43;52.07;;;46.67;;
20044;SDS011;10183;47.808;9.476;2024-02-26T09:33:09;50.10;;;44.90;;
20044;SDS011;10183;47.808;9.476;2024-02-26T09:35:35;56.77;;;51.27;;
20044;SDS011;10183;47.808;9.476;2024-02-26T09:38:01;61.70;;;55.37;;
20044;SDS011;10183;47.808;9.476;2024-02-26T09:40:27;54.93;;;48.93;;
20044;SDS011;10183;47.808;9.476;2024-02-26T09:42:56;42.73;;;36.10;;
20044;SDS011;10183;47.808;9.476;2024-02-26T09:45:25;45.83;;;40.83;;
20044;SDS011;10183;47.808;9.476;2024-02-26T09:47:52;56.40;;;50.47;;
20044;SDS011;10183;47.808;9.476;2024-02-26T09:50:20;41.03;;;36.53;;
20044;SDS011;10183;47.808;9.476;2024-02-26T09:52:50;37.43;;;32.23;;
20044;SDS011;10183;47.808;9.476;2024-02-26T09:55:16;37.73;;;33.07;;
20044;SDS011;10183;47.808;9.476;2024-02-26T09:57:46;35.70;;;31.77;;
20044;SDS011;10183;47.808;9.476;2024-02-26T10:00:17;27.90;;;23.60;;
20044;SDS011;10183;47.808;9.476;2024-02-26T10:02:47;31.33;;;28.23;;
20044;SDS011;10183;47.808;9.476;2024-02-26T10:05:14;30.50;;;27.43;;
20044;SDS011;10183;47.808;9.476;2024-02-26T10:07:40;30.40;;;27.30;;
20044;SDS011;10183;47.808;9.476;2024-02-26T10:10:08;27.30;;;24.33;;
20044;SDS011;10183;47.808;9.476;2024-02-26T10:12:34;30.60;;;27.50;;
20044;SDS011;10183;47.808;9.476;2024-02-26T10:15:00;31.53;;;28.43;;
20044;SDS011;10183;47.808;9.476;2024-02-26T10:17:26;29.83;;;26.73;;
20044;SDS011;10183;47.808;9.476;2024-02-26T10:19:53;26.70;;;23.30;;
20044;SDS011;10183;47.808;9.476;2024-02-26T10:22:21;27.43;;;24.17;;
20044;SDS011;10183;47.808;9.476;2024-02-26T10:24:47;28.60;;;25.53;;
20044;SDS011;10183;47.808;9.476;2024-02-26T10:27:14;29.57;;;26.57;;
20044;SDS011;10183;47.808;9.476;2024-02-26T10:29:40;27.63;;;24.77;;
20044;SDS011;10183;47.808;9.476;2024-02-26T10:32:08;29.90;;;26.87;;
20044;SDS011;10183;47.808;9.476;2024-02-26T10:34:34;30.77;;;25.07;;
20044;SDS011;10183;47.808;9.476;2024-02-26T10:37:03;27.63;;;23.70;;
20044;SDS011;10183;47.808;9.476;2024-02-26T10:39:29;28.37;;;23.40;;
20044;SDS011;10183;47.808;9.476;2024-02-26T10:41:55;28.40;;;25.17;;
20044;SDS011;10183;47.808;9.476;2024-02-26T10:44:21;25.20;;;21.93;;
20044;SDS011;10183;47.808;9.476;2024-02-26T10:46:47;28.33;;;25.33;;
20044;SDS011;10183;47.808;9.476;2024-02-26T10:49:16;29.00;;;26.00;;
20044;SDS011;10183;47.808;9.476;2024-02-26T10:51:43;27.97;;;24.97;;
20044;SDS011;10183;47.808;9.476;2024-02-26T10:54:12;28.57;;;25.67;;
20044;SDS011;10183;47.808;9.476;2024-02-26T10:56:41;28.80;;;25.80;;
20044;SDS011;10183;47.808;9.476;2024-02-26T10:59:09;32.50;;;29.00;;
20044;SDS011;10183;47.808;9.476;2024-02-26T11:01:36;36.13;;;32.33;;
20044;SDS011;10183;47.808;9.476;2024-02-26T11:04:06;38.33;;;34.13;;
20044;SDS011;10183;47.808;9.476;2024-02-26T11:06:32;34.47;;;30.60;;
20044;SDS011;10183;47.808;9.476;2024-02-26T11:08:59;35.37;;;31.67;;
20044;SDS011;10183;47.808;9.476;2024-02-26T11:11:27;38.53;;;34.73;;
20044;SDS011;10183;47.808;9.476;2024-02-26T11:13:53;37.23;;;33.53;;
20044;SDS011;10183;47.808;9.476;2024-02-26T11:16:22;39.00;;;34.70;;
20044;SDS011;10183;47.808;9.476;2024-02-26T11:18:49;33.43;;;29.93;;
20044;SDS011;10183;47.808;9.476;2024-02-26T11:21:15;33.57;;;29.97;;
20044;SDS011;10183;47.808;9.476;2024-02-26T11:23:44;32.40;;;29.00;;
20044;SDS011;10183;47.808;9.476;2024-02-26T11:26:10;35.50;;;31.87;;
20044;SDS011;10183;47.808;9.476;2024-02-26T11:28:37;33.03;;;29.63;;
20044;SDS011;10183;47.808;9.476;2024-02-26T11:31:04;35.17;;;31.37;;
20044;SDS011;10183;47.808;9.476;2024-02-26T11:33:32;39.43;;;34.50;;
20044;SDS011;10183;47.808;9.476;2024-02-26T11:35:58;35.93;;;31.97;;
20044;SDS011;10183;47.808;9.476;2024-02-26T11:38:25;35.73;;;32.03;;
20044;SDS011;10183;47.808;9.476;2024-02-26T11:40:53;36.13;;;32.33;;
20044;SDS011;10183;47.808;9.476;2024-02-26T11:43:23;32.90;;;29.57;;
20044;SDS011;10183;47.808;9.476;2024-02-26T11:45:50;32.87;;;29.47;;
20044;SDS011;10183;47.808;9.476;2024-02-26T11:48:21;34.73;;;31.23;;
20044;SDS011;10183;47.808;9.476;2024-02-26T11:50:53;32.43;;;29.13;;
20044;SDS011;10183;47.808;9.476;2024-02-26T11:53:23;33.60;;;30.20;;
20044;SDS011;10183;47.808;9.476;2024-02-26T11:56:33;34.87;;;31.43;;
20044;SDS011;10183;47.808;9.476;2024-02-26T11:58:40;34.00;;;30.70;;
20044;SDS011;10183;47.808;9.476;2024-02-26T12:01:35;31.17;;;27.70;;
20044;SDS011;10183;47.808;9.476;2024-02-26T12:03:54;30.90;;;27.60;;
20044;SDS011;10183;47.808;9.476;2024-02-26T12:06:20;26.80;;;23.57;;
20044;SDS011;10183;47.808;9.476;2024-02-26T12:08:46;28.20;;;25.30;;
20044;SDS011;10183;47.808;9.476;2024-02-26T12:11:15;28.70;;;25.90;;
20044;SDS011;10183;47.808;9.476;2024-02-26T12:13:41;26.87;;;24.07;;
20044;SDS011;10183;47.808;9.476;2024-02-26T12:16:08;29.17;;;26.37;;
20044;SDS011;10183;47.808;9.476;2024-02-26T12:18:34;28.23;;;25.33;;
20044;SDS011;10183;47.808;9.476;2024-02-26T12:21:00;27.33;;;24.70;;
20044;SDS011;10183;47.808;9.476;2024-02-26T12:23:27;27.20;;;24.40;;
20044;SDS011;10183;47.808;9.476;2024-02-26T12:25:53;27.63;;;24.83;;
20044;SDS011;10183;47.808;9.476;2024-02-26T12:28:20;27.77;;;24.97;;
20044;SDS011;10183;47.808;9.476;2024-02-26T12:30:46;27.73;;;24.93;;
20044;SDS011;10183;47.808;9.476;2024-02-26T12:33:12;28.70;;;25.97;;
20044;SDS011;10183;47.808;9.476;2024-02-26T12:35:38;27.00;;;24.13;;
20044;SDS011;10183;47.808;9.476;2024-02-26T12:38:04;28.00;;;25.00;;
20044;SDS011;10183;47.808;9.476;2024-02-26T12:40:30;26.70;;;23.90;;
20044;SDS011;10183;47.808;9.476;2024-02-26T12:42:57;30.83;;;27.73;;
20044;SDS011;10183;47.808;9.476;2024-02-26T12:45:23;29.63;;;26.47;;
20044;SDS011;10183;47.808;9.476;2024-02-26T12:47:51;29.20;;;26.20;;
20044;SDS011;10183;47.808;9.476;2024-02-26T12:50:17;30.23;;;26.23;;
20044;SDS011;10183;47.808;9.476;2024-02-26T12:52:44;29.70;;;24.43;;
20044;SDS011;10183;47.808;9.476;2024-02-26T12:55:11;30.43;;;27.33;;
20044;SDS011;10183;47.808;9.476;2024-02-26T12:57:39;27.60;;;23.83;;
20044;SDS011;10183;47.808;9.476;2024-02-26T13:00:08;31.90;;;25.67;;
20044;SDS011;10183;47.808;9.476;2024-02-26T13:02:36;30.30;;;27.10;;
20044;SDS011;10183;47.808;9.476;2024-02-26T13:05:03;29.73;;;25.97;;
20044;SDS011;10183;47.808;9.476;2024-02-26T13:07:30;31.93;;;28.73;;
20044;SDS011;10183;47.808;9.476;2024-02-26T13:09:56;32.70;;;29.40;;
20044;SDS011;10183;47.808;9.476;2024-02-26T13:12:23;31.27;;;28.07;;
20044;SDS011;10183;47.808;9.476;2024-02-26T13:14:58;33.70;;;30.27;;
20044;SDS011;10183;47.808;9.476;2024-02-26T13:17:24;32.10;;;28.70;;
20044;SDS011;10183;47.808;9.476;2024-02-26T13:19:53;30.20;;;27.00;;
20044;SDS011;10183;47.808;9.476;2024-02-26T13:22:20;31.73;;;28.42;;
20044;SDS011;10183;47.808;9.476;2024-02-26T13:24:53;28.75;;;25.65;;
20044;SDS011;10183;47.808;9.476;2024-02-26T13:27:23;32.40;;;29.25;;
20044;SDS011;10183;47.808;9.476;2024-02-26T13:30:01;31.05;;;27.80;;
20044;SDS011;10183;47.808;9.476;2024-02-26T13:32:27;31.95;;;28.75;;
20044;SDS011;10183;47.808;9.476;2024-02-26T13:35:03;31.27;;;27.97;;
20044;SDS011;10183;47.808;9.476;2024-02-26T13:37:31;28.13;;;25.23;;
20044;SDS011;10183;47.808;9.476;2024-02-26T13:39:57;30.17;;;27.07;;
20044;SDS011;10183;47.808;9.476;2024-02-26T13:42:23;29.43;;;26.43;;
20044;SDS011;10183;47.808;9.476;2024-02-26T13:44:49;32.40;;;29.30;;
20044;SDS011;10183;47.808;9.476;2024-02-26T13:47:15;33.23;;;30.03;;
20044;SDS011;10183;47.808;9.476;2024-02-26T13:49:41;29.63;;;26.43;;
20044;SDS011;10183;47.808;9.476;2024-02-26T13:52:07;31.20;;;27.07;;
20044;SDS011;10183;47.808;9.476;2024-02-26T13:54:33;30.93;;;27.87;;
20044;SDS011;10183;47.808;9.476;2024-02-26T13:57:00;32.37;;;29.37;;
20044;SDS011;10183;47.808;9.476;2024-02-26T13:59:26;32.83;;;29.70;;
20044;SDS011;10183;47.808;9.476;2024-02-26T14:01:52;31.33;;;28.13;;
20044;SDS011;10183;47.808;9.476;2024-02-26T14:04:20;38.37;;;34.67;;
20044;SDS011;10183;47.808;9.476;2024-02-26T14:06:46;36.30;;;32.93;;
20044;SDS011;10183;47.808;9.476;2024-02-26T14:09:12;36.43;;;33.03;;
20044;SDS011;10183;47.808;9.476;2024-02-26T14:11:43;31.47;;;28.07;;
20044;SDS011;10183;47.808;9.476;2024-02-26T14:14:09;30.40;;;27.57;;
20044;SDS011;10183;47.808;9.476;2024-02-26T14:16:35;30.20;;;27.30;;